Time;durP1;ratioP1;P1;durP2;ratioP2;P2;SDS_P1;SDS_P2;PMS_P1;PMS_P2;Temp;Humidity;BMP_temperature;BMP_pressure;BME280_temperature;BME280_humidity;BME280_pressure;Samples;Min_cycle;Max_cycle;Signal;HPM_P1;HPM_P2
2021/10/26 00:00:48;;;;;;;4.10;2.33;;;9.80;55.90;;;;;;5018609;28;20041;-80
2021/10/26 00:03:15;;;;;;;4.03;2.33;;;9.90;56.00;;;;;;5019182;28;20029;-80
2021/10/26 00:05:41;;;;;;;7.18;2.67;;;9.80;56.20;;;;;;5017833;28;20029;-80
2021/10/26 00:08:07;;;;;;;3.78;2.30;;;9.80;56.10;;;;;;5000595;28;20038;-80
2021/10/26 00:10:34;;;;;;;4.22;2.53;;;9.80;56.20;;;;;;5019521;28;20060;-80
2021/10/26 00:13:00;;;;;;;5.32;2.42;;;9.80;56.30;;;;;;5019201;28;20489;-81
2021/10/26 00:15:26;;;;;;;3.03;2.53;;;9.80;56.40;;;;;;5003711;28;20038;-80
2021/10/26 00:17:53;;;;;;;3.22;2.38;;;9.70;56.40;;;;;;5017740;28;20048;-80
2021/10/26 00:20:19;;;;;;;4.30;2.40;;;9.70;56.30;;;;;;5005613;28;20396;-80
2021/10/26 00:22:45;;;;;;;3.80;2.53;;;9.80;56.30;;;;;;5018249;28;20030;-80
2021/10/26 00:25:11;;;;;;;3.22;2.33;;;9.80;56.50;;;;;;5018457;28;21123;-79
2021/10/26 00:27:37;;;;;;;2.67;2.22;;;9.70;56.30;;;;;;5019219;28;20056;-79
2021/10/26 00:30:06;;;;;;;4.50;2.40;;;9.80;56.40;;;;;;5018324;28;20068;-80
2021/10/26 00:32:33;;;;;;;3.58;2.47;;;9.70;56.40;;;;;;5017364;28;20041;-81
2021/10/26 00:34:59;;;;;;;5.07;2.95;;;9.70;56.40;;;;;;5004526;28;20037;-80
2021/10/26 00:37:24;;;;;;;3.50;2.50;;;9.80;56.30;;;;;;5017336;28;20088;-81
2021/10/26 00:39:51;;;;;;;4.80;2.20;;;9.70;56.30;;;;;;5018449;28;20069;-81
2021/10/26 00:42:17;;;;;;;2.78;1.88;;;9.80;56.70;;;;;;5018010;28;20500;-80
2021/10/26 00:44:46;;;;;;;2.92;2.25;;;9.70;56.70;;;;;;4999829;28;20030;-81
2021/10/26 00:47:12;;;;;;;3.25;2.50;;;9.70;56.70;;;;;;5000579;28;20034;-80
2021/10/26 00:49:38;;;;;;;4.80;2.58;;;9.70;56.90;;;;;;5000084;28;20052;-79
2021/10/26 00:52:05;;;;;;;2.85;2.33;;;9.70;56.80;;;;;;5017437;28;20030;-79
2021/10/26 00:54:31;;;;;;;3.33;2.40;;;9.70;56.80;;;;;;5000306;28;20044;-79
2021/10/26 00:57:06;;;;;;;2.83;2.35;;;9.70;56.90;;;;;;4999246;28;20037;-81
2021/10/26 00:59:32;;;;;;;3.53;2.50;;;9.70;56.80;;;;;;4999466;28;20033;-80
2021/10/26 01:02:00;;;;;;;2.83;2.15;;;9.70;56.70;;;;;;5000288;28;20036;-81
2021/10/26 01:04:28;;;;;;;5.45;2.67;;;9.70;56.90;;;;;;5000145;28;20040;-81
2021/10/26 01:06:56;;;;;;;3.70;2.63;;;9.70;57.00;;;;;;5000085;28;20029;-81
2021/10/26 01:09:23;;;;;;;3.15;2.08;;;9.60;57.00;;;;;;5017555;28;20041;-81
2021/10/26 01:11:50;;;;;;;4.97;2.00;;;9.70;57.20;;;;;;4999678;28;20427;-80
2021/10/26 01:14:17;;;;;;;4.15;2.50;;;9.60;57.20;;;;;;5000711;28;20033;-80
2021/10/26 01:16:43;;;;;;;4.22;2.30;;;9.70;57.10;;;;;;4999367;28;20132;-81
2021/10/26 01:19:12;;;;;;;3.35;2.40;;;9.70;57.00;;;;;;5000159;28;20409;-81
2021/10/26 01:21:40;;;;;;;4.32;2.60;;;9.60;57.20;;;;;;4986930;28;21179;-81
2021/10/26 01:24:06;;;;;;;2.92;2.40;;;9.60;57.10;;;;;;4986042;28;20030;-81
2021/10/26 01:26:33;;;;;;;3.47;2.13;;;9.70;57.10;;;;;;4998782;28;20037;-81
2021/10/26 01:29:00;;;;;;;4.65;2.53;;;9.70;57.20;;;;;;5000285;28;20030;-81
2021/10/26 01:31:29;;;;;;;4.78;2.83;;;9.60;57.30;;;;;;5000171;28;20033;-81
2021/10/26 01:34:09;;;;;;;4.05;2.95;;;9.60;57.40;;;;;;4987894;28;20034;-80
2021/10/26 01:36:38;;;;;;;4.32;2.60;;;9.60;57.40;;;;;;5000936;28;20025;-80
2021/10/26 01:39:04;;;;;;;3.88;2.25;;;9.60;57.40;;;;;;4999397;28;20476;-81
2021/10/26 01:41:33;;;;;;;4.28;2.47;;;9.60;57.30;;;;;;4999414;28;20036;-81
2021/10/26 01:43:59;;;;;;;3.13;2.55;;;9.60;57.50;;;;;;4999293;28;20045;-82
2021/10/26 01:46:25;;;;;;;4.25;2.75;;;9.60;57.40;;;;;;4998732;28;20044;-81
2021/10/26 01:48:52;;;;;;;3.60;2.75;;;9.60;57.40;;;;;;4998826;28;20423;-81
2021/10/26 01:51:18;;;;;;;4.68;2.65;;;9.60;57.50;;;;;;4999053;28;20036;-81
2021/10/26 01:53:44;;;;;;;4.88;2.78;;;9.60;57.60;;;;;;4998661;28;20029;-82
2021/10/26 01:56:13;;;;;;;3.70;2.53;;;9.50;57.60;;;;;;4999348;28;20030;-80
2021/10/26 01:58:51;;;;;;;4.85;2.85;;;9.60;57.30;;;;;;4998323;28;20038;-81
2021/10/26 02:01:22;;;;;;;3.97;2.78;;;9.60;57.40;;;;;;4998618;28;20053;-80
2021/10/26 02:03:48;;;;;;;5.68;3.22;;;9.60;57.30;;;;;;4998810;28;20040;-81
2021/10/26 02:06:16;;;;;;;4.60;3.28;;;9.60;57.50;;;;;;5002481;28;20052;-80
2021/10/26 02:08:42;;;;;;;6.55;2.83;;;9.60;57.60;;;;;;4997538;28;20121;-80
2021/10/26 02:11:09;;;;;;;5.25;2.83;;;9.60;57.70;;;;;;4982436;28;20034;-81
2021/10/26 02:13:36;;;;;;;3.40;2.50;;;9.50;57.60;;;;;;4987603;28;20030;-80
2021/10/26 02:16:04;;;;;;;5.68;3.22;;;9.60;57.60;;;;;;4999173;28;20404;-80
2021/10/26 02:18:32;;;;;;;4.10;2.80;;;9.60;57.70;;;;;;4998365;28;20037;-82
2021/10/26 02:21:00;;;;;;;5.18;2.67;;;9.60;57.70;;;;;;4999070;28;20485;-80
2021/10/26 02:23:26;;;;;;;3.30;2.50;;;9.50;57.80;;;;;;4998639;28;20045;-81
2021/10/26 02:25:52;;;;;;;3.70;2.65;;;9.60;57.90;;;;;;5015869;28;20455;-81
2021/10/26 02:28:19;;;;;;;4.28;2.40;;;9.50;58.10;;;;;;5016065;28;20036;-80
2021/10/26 02:30:48;;;;;;;4.95;2.97;;;9.50;58.10;;;;;;4999246;28;20611;-82
2021/10/26 02:33:14;;;;;;;6.47;3.20;;;9.50;58.10;;;;;;5016547;28;20045;-79
2021/10/26 02:35:41;;;;;;;4.22;2.88;;;9.50;58.10;;;;;;4998309;28;20038;-79
2021/10/26 02:38:10;;;;;;;3.67;2.72;;;9.50;58.10;;;;;;4998407;28;20030;-80
2021/10/26 02:40:36;;;;;;;6.03;3.00;;;9.50;58.10;;;;;;4998763;28;20069;-80
2021/10/26 02:43:02;;;;;;;4.43;2.80;;;9.50;58.10;;;;;;4997865;28;20113;-80
2021/10/26 02:45:29;;;;;;;4.80;2.80;;;9.50;58.00;;;;;;4997157;28;20124;-80
2021/10/26 02:47:58;;;;;;;4.22;3.13;;;9.50;58.20;;;;;;4998347;28;20029;-80
2021/10/26 02:50:25;;;;;;;5.32;3.15;;;9.50;58.10;;;;;;4998117;28;20083;-80
2021/10/26 02:52:52;;;;;;;3.90;2.72;;;9.50;58.10;;;;;;4998082;28;20048;-80
2021/10/26 02:55:18;;;;;;;3.60;2.42;;;9.50;58.00;;;;;;4998040;28;20029;-80
2021/10/26 02:57:46;;;;;;;5.43;2.90;;;9.50;58.10;;;;;;4997848;28;20069;-82
2021/10/26 03:00:13;;;;;;;3.83;2.83;;;9.50;58.20;;;;;;4997724;28;20045;-81
2021/10/26 03:02:40;;;;;;;3.08;2.60;;;9.50;58.10;;;;;;4998114;28;20037;-81
2021/10/26 03:05:08;;;;;;;5.25;3.28;;;9.40;58.20;;;;;;4999016;28;20160;-81
2021/10/26 03:07:41;;;;;;;6.03;2.80;;;9.50;58.00;;;;;;5003545;28;20025;-81
2021/10/26 03:10:09;;;;;;;4.30;2.45;;;9.40;58.20;;;;;;4999432;28;22112;-81
2021/10/26 03:12:35;;;;;;;3.67;2.40;;;9.40;58.10;;;;;;5014679;28;20528;-81
2021/10/26 03:15:03;;;;;;;3.45;2.63;;;9.40;58.00;;;;;;4973859;28;20065;-81
2021/10/26 03:17:29;;;;;;;5.20;3.00;;;9.40;57.90;;;;;;4997626;28;20041;-81
2021/10/26 03:20:09;;;;;;;4.40;2.90;;;9.40;58.20;;;;;;4999417;28;20180;-81
2021/10/26 03:22:35;;;;;;;5.22;2.95;;;9.40;58.40;;;;;;5002546;28;20500;-80
2021/10/26 03:25:01;;;;;;;6.28;2.95;;;9.40;58.30;;;;;;5005634;28;20128;-81
2021/10/26 03:27:28;;;;;;;3.92;2.90;;;9.40;58.40;;;;;;5001206;28;20125;-80
2021/10/26 03:29:54;;;;;;;7.55;2.72;;;9.40;58.40;;;;;;5019248;28;20131;-82
2021/10/26 03:32:20;;;;;;;4.45;3.20;;;9.40;58.40;;;;;;5002444;28;20072;-82
2021/10/26 03:35:09;;;;;;;6.03;2.60;;;9.40;58.10;;;;;;5005537;28;20045;-81
2021/10/26 03:37:40;;;;;;;3.65;2.80;;;9.40;58.20;;;;;;5001420;28;20034;-81
2021/10/26 03:40:08;;;;;;;6.97;3.03;;;9.40;58.10;;;;;;5001182;28;20029;-81
2021/10/26 03:42:35;;;;;;;5.85;2.90;;;9.40;58.00;;;;;;4989808;28;20404;-80
2021/10/26 03:45:02;;;;;;;5.70;3.13;;;9.40;58.10;;;;;;5004612;28;20032;-80
2021/10/26 03:47:29;;;;;;;6.15;3.42;;;9.30;58.20;;;;;;5016762;28;20125;-81
2021/10/26 03:49:54;;;;;;;5.15;3.22;;;9.40;58.40;;;;;;5000395;28;20115;-81
2021/10/26 03:52:20;;;;;;;7.93;3.63;;;9.30;58.50;;;;;;5001375;28;20061;-81
2021/10/26 03:54:47;;;;;;;5.22;3.13;;;9.30;59.00;;;;;;5004550;28;20036;-81
2021/10/26 03:57:13;;;;;;;5.70;2.95;;;9.30;58.50;;;;;;4990943;28;20438;-83
2021/10/26 03:59:40;;;;;;;6.60;3.97;;;9.30;58.50;;;;;;5001185;28;20037;-83
2021/10/26 04:02:17;;;;;;;6.35;2.95;;;9.30;58.50;;;;;;4999927;28;20033;-83
2021/10/26 04:04:43;;;;;;;5.55;3.50;;;9.30;58.60;;;;;;4999284;28;20535;-83
2021/10/26 04:07:10;;;;;;;3.65;2.80;;;9.30;58.70;;;;;;5000802;28;20038;-83
2021/10/26 04:14:43;;;;;;;4.60;3.05;;;9.30;58.50;;;;;;4998680;28;20033;-82
2021/10/26 04:17:12;;;;;;;8.23;3.30;;;9.30;58.40;;;;;;4998059;28;20038;-82
2021/10/26 04:19:38;;;;;;;5.90;3.40;;;9.30;58.30;;;;;;4981837;28;20037;-82
2021/10/26 04:22:04;;;;;;;8.00;3.35;;;9.40;58.40;;;;;;5000294;28;20032;-80
2021/10/26 04:24:31;;;;;;;5.15;3.20;;;9.30;58.60;;;;;;5000878;28;20045;-83
2021/10/26 04:26:57;;;;;;;7.93;4.00;;;9.30;58.70;;;;;;5018902;28;20095;-85
2021/10/26 04:29:23;;;;;;;6.93;3.55;;;9.30;58.30;;;;;;4983713;28;20791;-84
2021/10/26 04:31:50;;;;;;;6.43;3.40;;;9.30;58.30;;;;;;4999172;28;20037;-85
2021/10/26 04:34:19;;;;;;;8.93;3.70;;;9.30;58.30;;;;;;5000902;28;20492;-86
2021/10/26 04:36:45;;;;;;;6.47;3.72;;;9.30;58.30;;;;;;4999990;28;20034;-84
2021/10/26 04:39:11;;;;;;;8.48;3.92;;;9.30;58.40;;;;;;4999890;28;20033;-86
2021/10/26 04:41:37;;;;;;;9.32;3.58;;;9.30;58.40;;;;;;4998292;28;20582;-84
2021/10/26 04:44:04;;;;;;;6.00;3.40;;;9.30;58.40;;;;;;4980739;28;20125;-87
2021/10/26 04:46:31;;;;;;;8.23;3.97;;;9.30;58.40;;;;;;4999753;28;20120;-86
2021/10/26 04:48:57;;;;;;;9.68;3.42;;;9.30;58.40;;;;;;4998421;28;20029;-83
2021/10/26 04:51:23;;;;;;;8.95;3.95;;;9.30;58.40;;;;;;5016712;28;20045;-83
2021/10/26 04:53:49;;;;;;;7.40;4.18;;;9.30;58.40;;;;;;5001486;28;20040;-83
2021/10/26 04:56:15;;;;;;;9.85;3.50;;;9.30;58.50;;;;;;5018261;28;20499;-83
2021/10/26 04:59:04;;;;;;;8.95;4.00;;;9.20;58.50;;;;;;4934370;29;20035;-83
2021/10/26 05:01:31;;;;;;;7.63;3.42;;;9.20;58.50;;;;;;4927950;29;20055;-83
2021/10/26 05:03:58;;;;;;;5.53;3.58;;;9.20;58.60;;;;;;4975168;28;20033;-83
2021/10/26 05:06:24;;;;;;;6.32;3.78;;;9.20;58.70;;;;;;4988108;28;20029;-83
2021/10/26 05:08:53;;;;;;;6.03;3.67;;;9.20;58.70;;;;;;5017603;28;20040;-83
2021/10/26 05:11:20;;;;;;;7.80;3.60;;;9.30;58.80;;;;;;4999780;28;20067;-83
2021/10/26 05:13:47;;;;;;;8.32;3.60;;;9.20;58.70;;;;;;4986470;28;20033;-84
2021/10/26 05:16:22;;;;;;;12.27;3.83;;;9.30;58.80;;;;;;4999406;28;20125;-83
2021/10/26 05:19:16;;;;;;;5.35;3.85;;;9.30;58.80;;;;;;4926580;29;20503;-83
2021/10/26 05:21:57;;;;;;;5.32;3.38;;;9.30;58.80;;;;;;4937266;29;20122;-84
2021/10/26 05:24:41;;;;;;;8.27;4.13;;;9.40;58.80;;;;;;5006422;28;20061;-84
2021/10/26 05:27:29;;;;;;;5.10;3.90;;;9.40;58.70;;;;;;4999398;28;20034;-84
2021/10/26 05:29:55;;;;;;;9.80;4.15;;;9.50;58.70;;;;;;4986635;28;20026;-84
2021/10/26 05:32:22;;;;;;;7.25;4.03;;;9.50;58.70;;;;;;4989356;28;20072;-84
2021/10/26 05:34:48;;;;;;;7.82;4.10;;;9.50;58.60;;;;;;4998240;28;20044;-83
2021/10/26 05:37:13;;;;;;;10.45;3.95;;;9.60;58.60;;;;;;4986206;28;20029;-83
2021/10/26 05:39:41;;;;;;;9.40;3.78;;;9.60;58.60;;;;;;5017174;28;20068;-83
2021/10/26 05:42:08;;;;;;;8.68;4.18;;;9.70;58.60;;;;;;5016595;28;20060;-83
2021/10/26 05:44:34;;;;;;;8.18;4.00;;;9.70;58.60;;;;;;4987442;28;20033;-83
2021/10/26 05:47:00;;;;;;;5.82;3.75;;;9.70;58.50;;;;;;4996802;28;20169;-83
2021/10/26 05:49:26;;;;;;;6.68;4.30;;;9.70;58.40;;;;;;4998489;28;20026;-83
2021/10/26 05:51:52;;;;;;;7.95;4.13;;;9.80;58.40;;;;;;4999456;28;20042;-83
2021/10/26 05:54:18;;;;;;;6.90;3.55;;;9.80;58.40;;;;;;5019178;28;20037;-82
2021/10/26 05:56:44;;;;;;;7.03;3.90;;;9.90;58.40;;;;;;5017880;28;20507;-82
2021/10/26 05:59:10;;;;;;;7.15;4.15;;;9.90;58.40;;;;;;5016498;28;20041;-83
2021/10/26 06:01:36;;;;;;;7.45;3.70;;;10.00;58.40;;;;;;4998789;28;20037;-82
2021/10/26 06:04:04;;;;;;;8.63;4.05;;;10.00;58.30;;;;;;4987404;28;20400;-82
2021/10/26 06:06:33;;;;;;;7.18;3.97;;;10.10;58.30;;;;;;4999522;28;20033;-84
2021/10/26 06:08:59;;;;;;;7.80;4.38;;;10.10;58.10;;;;;;4999376;28;20500;-84
2021/10/26 06:11:27;;;;;;;10.90;3.70;;;10.20;58.20;;;;;;5003956;28;20400;-86
2021/10/26 06:14:08;;;;;;;11.05;3.83;;;10.20;58.20;;;;;;4982057;28;20033;-87
2021/10/26 06:16:37;;;;;;;10.55;3.30;;;10.20;58.80;;;;;;4992062;28;20025;-83
2021/10/26 06:19:06;;;;;;;11.15;3.72;;;10.30;59.70;;;;;;4989491;28;20476;-82
2021/10/26 06:21:32;;;;;;;7.43;3.38;;;10.30;60.60;;;;;;4998244;28;20061;-83
2021/10/26 06:24:00;;;;;;;10.25;3.80;;;10.40;61.20;;;;;;5000052;28;20076;-83
2021/10/26 06:26:29;;;;;;;8.15;3.30;;;10.40;61.50;;;;;;5001461;28;20057;-82
2021/10/26 06:29:01;;;;;;;6.07;3.42;;;10.50;61.90;;;;;;5019416;28;20041;-82
2021/10/26 06:31:30;;;;;;;7.40;3.67;;;10.50;62.30;;;;;;5002768;28;20053;-83
2021/10/26 06:33:58;;;;;;;9.05;3.53;;;10.60;62.80;;;;;;5000346;28;20408;-82
2021/10/26 06:36:27;;;;;;;10.35;3.88;;;10.70;63.20;;;;;;5001393;28;20058;-82
2021/10/26 06:38:55;;;;;;;7.63;3.45;;;10.70;63.40;;;;;;5000864;28;20507;-84
2021/10/26 06:41:22;;;;;;;13.60;4.68;;;10.80;63.60;;;;;;5004206;28;20480;-84
2021/10/26 06:44:10;;;;;;;11.73;5.72;;;10.90;64.10;;;;;;5022485;28;20038;-82
2021/10/26 06:46:54;;;;;;;10.40;5.00;;;10.90;64.30;;;;;;5027216;28;20416;-81
2021/10/26 06:49:55;;;;;;;11.23;5.82;;;11.00;64.20;;;;;;5029034;28;20076;-81
2021/10/26 06:52:40;;;;;;;11.23;4.95;;;11.00;64.10;;;;;;5013824;28;20422;-82
2021/10/26 06:55:25;;;;;;;12.13;4.93;;;11.10;64.20;;;;;;5018061;28;20531;-87
2021/10/26 06:58:10;;;;;;;9.45;4.50;;;11.20;64.30;;;;;;5020777;28;20125;-88
2021/10/26 07:00:47;;;;;;;9.93;4.88;;;11.20;65.10;;;;;;5019915;28;20441;-87
2021/10/26 07:03:21;;;;;;;9.05;4.68;;;11.30;64.90;;;;;;5002707;28;20025;-88
2021/10/26 07:06:07;;;;;;;10.48;4.28;;;11.30;65.00;;;;;;5017686;28;20030;-87
2021/10/26 07:08:40;;;;;;;10.90;5.07;;;11.40;65.10;;;;;;5023358;28;20021;-86
2021/10/26 07:11:31;;;;;;;5.35;3.85;;;11.40;64.90;;;;;;4906708;29;20121;-87
2021/10/26 07:14:03;;;;;;;12.50;4.00;;;11.40;64.70;;;;;;4915048;29;20068;-86
2021/10/26 07:16:31;;;;;;;9.75;3.88;;;11.50;64.60;;;;;;4961153;28;20045;-86
2021/10/26 07:18:57;;;;;;;8.95;4.10;;;11.60;64.70;;;;;;5013806;28;20512;-87
2021/10/26 07:21:23;;;;;;;11.50;3.88;;;11.60;64.60;;;;;;4986579;28;20033;-87
2021/10/26 07:24:09;;;;;;;7.32;4.63;;;11.60;64.70;;;;;;5007803;28;20091;-88
2021/10/26 07:26:44;;;;;;;8.77;4.25;;;11.70;64.80;;;;;;5008777;28;20566;-88
2021/10/26 07:29:11;;;;;;;11.43;4.20;;;11.70;64.70;;;;;;5002199;28;20038;-89
2021/10/26 07:31:37;;;;;;;7.53;4.32;;;11.70;64.70;;;;;;4984589;28;20080;-87
2021/10/26 07:34:03;;;;;;;7.72;3.88;;;11.80;64.80;;;;;;5000166;28;20042;-88
2021/10/26 07:36:49;;;;;;;7.00;4.32;;;11.80;64.70;;;;;;5014817;28;20359;-88
2021/10/26 07:39:32;;;;;;;13.73;5.07;;;11.90;64.60;;;;;;4997411;28;20030;-89
2021/10/26 07:42:00;;;;;;;8.27;3.88;;;11.90;64.40;;;;;;4975316;28;20404;-89
2021/10/26 07:44:52;;;;;;;7.85;4.53;;;12.00;64.50;;;;;;5016990;28;20060;-88
2021/10/26 07:47:21;;;;;;;6.60;4.10;;;12.00;64.30;;;;;;5010330;28;20097;-88
2021/10/26 07:49:49;;;;;;;9.95;4.28;;;12.00;64.30;;;;;;4997185;28;20117;-88
2021/10/26 07:52:17;;;;;;;6.50;3.88;;;12.10;64.10;;;;;;5027121;28;20033;-88
2021/10/26 07:54:50;;;;;;;11.77;4.43;;;12.10;64.10;;;;;;5010115;28;20037;-87
2021/10/26 07:57:19;;;;;;;13.02;4.65;;;12.10;64.00;;;;;;5014919;28;20041;-88
2021/10/26 07:59:46;;;;;;;9.02;4.10;;;12.20;63.90;;;;;;4982796;28;20056;-88
2021/10/26 08:02:17;;;;;;;8.80;3.90;;;12.20;63.80;;;;;;4981861;28;20033;-87
2021/10/26 08:05:01;;;;;;;7.20;4.03;;;12.20;63.80;;;;;;5002572;28;20088;-87
2021/10/26 08:07:28;;;;;;;7.70;4.00;;;12.30;64.30;;;;;;4971004;28;20562;-84
2021/10/26 08:09:56;;;;;;;8.57;4.30;;;12.30;63.80;;;;;;5001071;28;20084;-86
2021/10/26 08:12:25;;;;;;;9.90;4.43;;;12.30;63.70;;;;;;4998724;28;20030;-86
2021/10/26 08:14:54;;;;;;;8.45;4.07;;;12.30;63.70;;;;;;4998887;28;20057;-86
2021/10/26 08:17:20;;;;;;;11.55;5.10;;;12.40;63.60;;;;;;4999933;28;20463;-85
2021/10/26 08:19:48;;;;;;;10.25;4.93;;;12.40;63.50;;;;;;5016322;28;20036;-85
2021/10/26 08:22:19;;;;;;;9.57;4.80;;;12.40;63.40;;;;;;5016742;28;20065;-84
2021/10/26 08:24:52;;;;;;;9.88;4.88;;;12.40;63.30;;;;;;4999617;28;20064;-86
2021/10/26 08:27:20;;;;;;;9.93;5.25;;;12.40;63.30;;;;;;5000291;28;20040;-86
2021/10/26 08:29:51;;;;;;;9.32;4.72;;;12.50;63.20;;;;;;5000005;28;20454;-84
2021/10/26 08:35:15;;;;;;;9.00;5.18;;;12.50;63.10;;;;;;4999149;28;20374;-84
2021/10/26 08:37:48;;;;;;;10.57;5.00;;;12.50;63.10;;;;;;4988803;28;20489;-85
2021/10/26 08:40:17;;;;;;;6.38;4.30;;;12.50;63.20;;;;;;4998836;28;20030;-85
2021/10/26 08:42:48;;;;;;;7.20;4.43;;;12.60;63.50;;;;;;4982503;28;20129;-85
2021/10/26 08:45:18;;;;;;;9.38;4.75;;;12.60;63.60;;;;;;5015927;28;20480;-84
2021/10/26 08:47:45;;;;;;;12.75;4.90;;;12.60;63.70;;;;;;4999792;28;20124;-85
2021/10/26 08:50:40;;;;;;;;;;;12.60;63.60;;;;;;4992157;28;20045;-84
2021/10/26 08:53:09;;;;;;;9.63;4.25;;;12.60;63.40;;;;;;4999535;28;19996;-83
2021/10/26 08:55:58;;;;;;;10.82;4.07;;;12.60;63.30;;;;;;5015266;28;20539;-84
2021/10/26 08:58:44;;;;;;;8.65;4.53;;;12.60;63.20;;;;;;5016139;28;20057;-85
2021/10/26 09:01:10;;;;;;;10.93;5.05;;;12.70;63.40;;;;;;4983261;28;20036;-83
2021/10/26 09:03:46;;;;;;;11.30;5.35;;;12.70;63.30;;;;;;4986627;28;20097;-83
2021/10/26 09:06:24;;;;;;;8.50;4.25;;;12.70;63.40;;;;;;4998907;28;20041;-86
2021/10/26 09:08:54;;;;;;;8.43;4.20;;;12.70;63.40;;;;;;4998647;28;20088;-85
2021/10/26 09:11:28;;;;;;;10.25;4.43;;;12.70;63.40;;;;;;4988397;28;20030;-85
2021/10/26 09:17:26;;;;;;;6.18;4.00;;;12.80;63.20;;;;;;4936378;29;20501;-85
2021/10/26 09:20:31;;;;;;;13.13;5.38;;;12.80;63.20;;;;;;4994631;28;20037;-84
2021/10/26 09:23:01;;;;;;;9.48;4.28;;;12.80;63.10;;;;;;4999066;28;20053;-84
2021/10/26 09:25:37;;;;;;;8.00;4.40;;;12.80;63.10;;;;;;5016131;28;20045;-84
2021/10/26 09:28:19;;;;;;;12.25;4.60;;;12.90;63.00;;;;;;5015910;28;20037;-84
2021/10/26 09:31:09;;;;;;;10.70;4.35;;;12.90;62.90;;;;;;5015092;28;20041;-84
2021/10/26 09:33:41;;;;;;;10.80;4.38;;;12.90;63.00;;;;;;5015256;28;20037;-84
2021/10/26 09:36:26;;;;;;;7.18;4.30;;;12.90;62.80;;;;;;5016454;28;20029;-85
2021/10/26 09:39:02;;;;;;;16.50;4.63;;;12.90;62.90;;;;;;4971202;28;20030;-85
2021/10/26 09:41:29;;;;;;;9.90;4.45;;;12.90;62.80;;;;;;5016130;28;20057;-85
2021/10/26 09:44:15;;;;;;;7.95;4.45;;;12.90;62.70;;;;;;5016826;28;20037;-83
2021/10/26 09:46:49;;;;;;;;;;;12.90;62.50;;;;;;5017614;28;20033;-82
2021/10/26 09:49:26;;;;;;;6.47;4.20;;;12.90;62.40;;;;;;5016782;28;19912;-83
2021/10/26 09:52:15;;;;;;;10.85;4.35;;;13.00;62.30;;;;;;5015601;28;20049;-84
2021/10/26 09:54:58;;;;;;;9.35;4.63;;;12.90;62.40;;;;;;4998284;28;20104;-85
2021/10/26 09:57:38;;;;;;;12.07;5.20;;;13.00;62.40;;;;;;5015229;28;20040;-83
2021/10/26 10:00:06;;;;;;;10.45;4.72;;;13.00;62.30;;;;;;5015812;28;20077;-83
2021/10/26 10:02:38;;;;;;;8.35;4.10;;;13.00;62.20;;;;;;5016438;28;20061;-86
2021/10/26 10:05:20;;;;;;;8.77;4.40;;;13.00;62.10;;;;;;5016040;28;20516;-85
2021/10/26 10:07:46;;;;;;;6.53;4.35;;;13.00;62.00;;;;;;5015420;28;20033;-86
2021/10/26 10:10:12;;;;;;;9.45;4.03;;;13.00;61.90;;;;;;4982562;28;20041;-87
2021/10/26 10:12:44;;;;;;;8.38;4.10;;;13.00;62.10;;;;;;4999383;28;20103;-84
2021/10/26 10:15:12;;;;;;;8.82;4.43;;;13.10;62.30;;;;;;5015471;28;20123;-85
2021/10/26 10:17:40;;;;;;;7.03;4.35;;;13.10;62.30;;;;;;5016486;28;20065;-85
2021/10/26 10:20:12;;;;;;;10.02;4.70;;;13.00;62.10;;;;;;4998424;28;20029;-85
2021/10/26 10:22:41;;;;;;;10.85;5.00;;;13.10;62.00;;;;;;4998924;28;20398;-85
2021/10/26 10:25:09;;;;;;;7.25;4.50;;;13.10;62.00;;;;;;5016527;28;20424;-85
2021/10/26 10:27:39;;;;;;;13.25;5.07;;;13.10;61.90;;;;;;4999371;28;20033;-86
2021/10/26 10:30:09;;;;;;;8.82;4.82;;;13.10;61.70;;;;;;4986757;28;20045;-85
2021/10/26 10:32:35;;;;;;;9.68;4.43;;;13.10;61.70;;;;;;5020743;28;20434;-85
2021/10/26 10:35:06;;;;;;;10.02;4.85;;;13.20;61.80;;;;;;5019805;28;20025;-86
2021/10/26 10:37:33;;;;;;;10.43;5.05;;;13.20;61.70;;;;;;5001240;28;20029;-85
2021/10/26 10:40:02;;;;;;;10.27;4.85;;;13.20;61.70;;;;;;5020259;28;20135;-84
2021/10/26 10:42:30;;;;;;;10.40;4.50;;;13.20;61.70;;;;;;5005148;28;20034;-89
2021/10/26 10:44:57;;;;;;;22.67;5.45;;;13.20;61.70;;;;;;5009340;28;20041;-86
2021/10/26 10:47:39;;;;;;;19.77;4.68;;;13.20;63.20;;;;;;4992552;28;20030;-85
2021/10/26 10:50:30;;;;;;;13.13;4.60;;;13.30;63.60;;;;;;5002192;28;20033;-85
2021/10/26 10:53:05;;;;;;;12.43;4.68;;;13.30;63.50;;;;;;4989376;28;20038;-85
2021/10/26 10:55:31;;;;;;;9.15;4.43;;;13.30;63.40;;;;;;5005611;28;20508;-86
2021/10/26 10:58:28;;;;;;;9.93;4.50;;;13.40;63.30;;;;;;4978416;28;20571;-85
2021/10/26 11:01:24;;;;;;;10.77;4.78;;;13.40;62.90;;;;;;5001177;28;20026;-86
2021/10/26 11:03:51;;;;;;;8.25;4.63;;;13.40;62.20;;;;;;5002735;28;20081;-88
2021/10/26 11:06:42;;;;;;;8.77;4.43;;;13.40;62.10;;;;;;5019985;28;20607;-86
2021/10/26 11:09:34;;;;;;;8.63;4.25;;;13.40;62.20;;;;;;5001377;28;20026;-88
2021/10/26 11:12:28;;;;;;;7.75;4.35;;;13.40;62.30;;;;;;4991943;28;20060;-90
2021/10/26 11:15:19;;;;;;;9.30;4.07;;;13.40;62.30;;;;;;5007024;28;20029;-87
2021/10/26 11:17:49;;;;;;;7.75;4.22;;;13.40;62.40;;;;;;4998296;28;20066;-86
2021/10/26 11:20:30;;;;;;;14.93;5.03;;;13.40;62.70;;;;;;5016051;28;20064;-86
2021/10/26 11:23:05;;;;;;;9.60;4.38;;;13.40;64.20;;;;;;5016759;28;20036;-85
2021/10/26 11:25:37;;;;;;;9.25;4.50;;;13.40;64.20;;;;;;5028077;28;20487;-85
2021/10/26 11:28:18;;;;;;;10.13;4.45;;;13.50;63.90;;;;;;4981554;28;20081;-85
2021/10/26 11:30:46;;;;;;;9.85;3.92;;;13.50;63.60;;;;;;4991303;28;20041;-81
2021/10/26 11:33:17;;;;;;;7.88;3.78;;;13.50;63.30;;;;;;5001523;28;20053;-81
2021/10/26 11:35:46;;;;;;;10.10;3.65;;;13.50;63.20;;;;;;4986512;28;20121;-81
2021/10/26 11:38:14;;;;;;;7.63;4.25;;;13.50;63.20;;;;;;5004292;28;20121;-82
2021/10/26 11:41:11;;;;;;;9.82;3.78;;;13.50;63.10;;;;;;5018759;28;20385;-82
2021/10/26 11:44:07;;;;;;;9.90;4.28;;;13.50;63.00;;;;;;4983029;28;20432;-82
2021/10/26 11:46:35;;;;;;;9.10;4.00;;;13.60;62.90;;;;;;5007197;28;20041;-83
2021/10/26 11:49:07;;;;;;;10.50;4.10;;;13.60;62.90;;;;;;5028322;28;20056;-83
2021/10/26 11:51:38;;;;;;;8.85;4.30;;;13.60;63.00;;;;;;5017678;28;20148;-84
2021/10/26 11:54:17;;;;;;;7.18;3.55;;;13.60;62.70;;;;;;5001148;28;20034;-84
2021/10/26 11:56:46;;;;;;;9.07;4.18;;;13.60;62.80;;;;;;5025875;28;20061;-83
2021/10/26 11:59:21;;;;;;;9.27;3.70;;;13.70;62.80;;;;;;4986498;28;20045;-83
2021/10/26 12:02:05;;;;;;;5.57;3.65;;;13.70;62.80;;;;;;4989808;28;20518;-83
2021/10/26 12:04:56;;;;;;;7.95;4.00;;;13.70;62.80;;;;;;5004044;28;20022;-83
2021/10/26 12:07:27;;;;;;;7.38;4.22;;;13.70;62.70;;;;;;5015877;28;20141;-82
2021/10/26 12:09:59;;;;;;;9.45;4.05;;;13.70;62.50;;;;;;4999673;28;21573;-84
2021/10/26 12:12:29;;;;;;;6.85;4.20;;;13.70;62.10;;;;;;4984517;28;20025;-84
2021/10/26 12:15:06;;;;;;;5.20;3.63;;;13.70;61.90;;;;;;5004018;28;20037;-83
2021/10/26 12:17:43;;;;;;;6.65;3.50;;;13.70;61.90;;;;;;5020549;28;20131;-84
2021/10/26 12:20:24;;;;;;;5.85;3.75;;;13.70;61.80;;;;;;5020097;28;20064;-83
2021/10/26 12:23:02;;;;;;;14.05;4.07;;;13.80;61.90;;;;;;5004990;28;20036;-83
2021/10/26 12:25:43;;;;;;;8.93;3.60;;;13.80;62.00;;;;;;5003588;28;20056;-86
2021/10/26 12:28:10;;;;;;;12.63;3.83;;;13.70;62.00;;;;;;4997010;28;20120;-85
2021/10/26 12:30:39;;;;;;;8.27;4.13;;;13.80;61.80;;;;;;4996360;28;20038;-84
2021/10/26 12:33:16;;;;;;;8.13;4.00;;;13.70;60.40;;;;;;4996106;28;20037;-85
2021/10/26 12:35:43;;;;;;;8.48;3.78;;;13.80;59.80;;;;;;5006015;28;20424;-85
2021/10/26 12:38:38;;;;;;;7.18;3.40;;;13.80;59.20;;;;;;5033730;28;20483;-82
2021/10/26 12:41:14;;;;;;;7.18;3.92;;;13.70;58.80;;;;;;5007697;28;20029;-85
2021/10/26 12:43:49;;;;;;;6.90;3.90;;;13.80;58.50;;;;;;5007501;28;20025;-85
2021/10/26 12:46:16;;;;;;;7.15;3.85;;;13.80;58.20;;;;;;5000389;28;20033;-88
2021/10/26 12:48:42;;;;;;;6.78;4.10;;;13.80;58.00;;;;;;4965559;28;20026;-87
2021/10/26 12:51:09;;;;;;;8.32;3.78;;;13.80;57.90;;;;;;4987303;28;20037;-84
2021/10/26 12:53:38;;;;;;;8.25;3.90;;;13.80;57.70;;;;;;4976149;28;20052;-86
2021/10/26 12:56:04;;;;;;;9.15;4.20;;;13.80;57.40;;;;;;5025166;28;20048;-83
2021/10/26 12:58:44;;;;;;;5.70;3.70;;;13.80;57.10;;;;;;5033921;28;20037;-88
2021/10/26 13:01:29;;;;;;;6.38;3.47;;;13.80;57.00;;;;;;4980630;28;20373;-89
2021/10/26 13:03:56;;;;;;;9.48;4.07;;;13.80;56.70;;;;;;4980249;28;20033;-88
2021/10/26 13:06:25;;;;;;;6.90;3.60;;;13.80;56.40;;;;;;5013756;28;20034;-86
2021/10/26 13:08:52;;;;;;;7.97;4.13;;;13.80;56.40;;;;;;5014755;28;20030;-85
2021/10/26 13:11:31;;;;;;;7.90;3.55;;;13.70;56.10;;;;;;5024618;28;20029;-86
2021/10/26 13:14:02;;;;;;;9.70;3.80;;;13.70;56.30;;;;;;5019932;28;20042;-88
2021/10/26 13:16:46;;;;;;;8.18;4.20;;;13.70;56.40;;;;;;4965897;28;20042;-87
2021/10/26 13:19:24;;;;;;;7.82;3.45;;;13.70;56.50;;;;;;5006333;28;20045;-88
2021/10/26 13:21:53;;;;;;;10.70;3.97;;;13.70;56.50;;;;;;5036594;28;20160;-85
2021/10/26 13:24:22;;;;;;;9.40;3.75;;;13.70;56.40;;;;;;5017244;28;20045;-84